Eco Wildfire — V7NN8 — position and weather

sailwx.info

Track history (hours):
 
Tides and Currents Weather Stations Pressure Air Temp Water Temp Dewpoint Dewpoint Depression Visibility Wind Speed Wind Dir Waves Ship Positions

Eco Wildfire

Last reported at 2018-Jan-07 23:38 UTC. Time now 2018-Jan-22 16:30 UTC.
Position S 27°38' E 153°51'.
Warning: this ship's position is 14 days out of date.

Length 179 m; draft 10.1 m.

Type: Cargo ship. MMSI: 538006482.

Date/timePositionNaut miles runAvg speedWind from/ knotsBaromVisibWave heightAir tempDewpointWater temp
2018-Jan-07 23:38S 27°38' E 153°51'212.9
2018-Jan-07 23:30S 27°39' E 153°50'612.9
2018-Jan-07 23:00S 27°46' E 153°49'612.5
2018-Jan-07 22:30S 27°52' E 153°51'612.5
2018-Jan-07 22:00S 27°58' E 153°54'612.0
2018-Jan-07 21:30S 28°03' E 153°58'611.6
2018-Jan-07 21:00S 28°08' E 153°59'612.1
2018-Jan-07 20:30S 28°15' E 153°59'711.9
2018-Jan-07 19:54S 28°22' E 153°58'712.0
2018-Jan-07 19:21S 28°28' E 153°55'6711.2
2018-Jan-07 13:22S 29°33' E 153°38'910.6
2018-Jan-07 12:30S 29°42' E 153°38'510.8
2018-Jan-07 12:00S 29°48' E 153°37'1111.1
2018-Jan-07 11:01S 29°58' E 153°35'011.2
2018-Jan-07 11:00S 29°59' E 153°35'2012.3
2018-Jan-07 09:23S 30°18' E 153°30'10211.5
2018-Jan-07 00:30S 31°55' E 152°54'711.2
2018-Jan-06 23:50S 32°02' E 152°51'411.2
2018-Jan-06 23:30S 32°05' E 152°49'610.9
2018-Jan-06 23:00S 32°10' E 152°47'510.7
2018-Jan-06 22:30S 32°15' E 152°44'511.0
2018-Jan-06 22:00S 32°20' E 152°42'611.3
2018-Jan-06 21:30S 32°25' E 152°39'611.5
2018-Jan-06 21:00S 32°31' E 152°35'713.3
2018-Jan-06 20:30S 32°35' E 152°30'713.3
2018-Jan-06 20:00S 32°40' E 152°25'713.2
2018-Jan-06 19:30S 32°45' E 152°20'713.1
2018-Jan-06 19:00S 32°50' E 152°15'713.2
2018-Jan-06 18:30S 32°55' E 152°10'612.9
2018-Jan-06 18:00S 33°00' E 152°05'612.8
2018-Jan-06 17:30S 33°05' E 151°60'612.7
2018-Jan-06 17:00S 33°10' E 151°55'612.7
2018-Jan-06 16:30S 33°15' E 151°50'612.7
2018-Jan-06 16:00S 33°20' E 151°46'612.6
2018-Jan-06 15:30S 33°25' E 151°41'612.6
2018-Jan-06 15:00S 33°30' E 151°36'612.7
2018-Jan-06 14:30S 33°35' E 151°32'612.6
2018-Jan-06 14:00S 33°40' E 151°27'612.6
2018-Jan-06 13:30S 33°46' E 151°25'612.5
2018-Jan-06 13:00S 33°52' E 151°23'612.4
2018-Jan-06 12:30S 33°58' E 151°22'612.3
2018-Jan-06 12:00S 34°04' E 151°19'612.4
2018-Jan-06 11:30S 34°10' E 151°17'612.2
2018-Jan-06 11:00S 34°16' E 151°16'612.2
2018-Jan-06 10:30S 34°22' E 151°16'612.3
2018-Jan-06 10:00S 34°28' E 151°14'612.6
2018-Jan-06 09:30S 34°34' E 151°13'1812.0
2018-Jan-06 07:59S 34°52' E 151°08'611.5
2018-Jan-06 07:30S 34°57' E 151°06'4010.2
2018-Jan-06 03:36S 35°37' E 150°60'3 9.9
2018-Jan-06 03:15S 35°40' E 150°60'11810.9
2018-Jan-05 16:25S 37°31' E 150°10'1113.0
2018-Jan-05 15:34S 37°38' E 150°00'113.7
2018-Jan-05 15:30S 37°39' E 149°59'713.5
2018-Jan-05 15:00S 37°44' E 149°53'713.2
2018-Jan-05 14:30S 37°48' E 149°48'713.1
2018-Jan-05 14:00S 37°53' E 149°42'713.1
2018-Jan-05 13:30S 37°58' E 149°36'713.2
2018-Jan-05 13:00S 38°03' E 149°30'712.8
2018-Jan-05 12:29S 38°08' E 149°24'712.5
2018-Jan-05 11:57S 38°12' E 149°18'612.8
2018-Jan-05 11:30S 38°15' E 149°12'713.0
2018-Jan-05 11:00S 38°19' E 149°05'713.0
2018-Jan-05 10:30S 38°23' E 148°58'712.8
2018-Jan-05 09:57S 38°27' E 148°51'612.8
2018-Jan-05 09:30S 38°30' E 148°45'712.9
2018-Jan-05 08:59S 38°34' E 148°38'612.8
2018-Jan-05 08:29S 38°38' E 148°32'713.1
2018-Jan-05 07:58S 38°42' E 148°25'613.2
2018-Jan-05 07:30S 38°46' E 148°19'814.2
2018-Jan-05 06:56S 38°49' E 148°09'613.8
2018-Jan-05 06:30S 38°51' E 148°02'713.8
2018-Jan-05 06:00S 38°53' E 147°53'713.7
2018-Jan-05 05:28S 38°56' E 147°44'613.3
2018-Jan-05 05:00S 38°58' E 147°37'713.2
2018-Jan-05 04:29S 39°00' E 147°29'613.0
2018-Jan-05 03:59S 39°02' E 147°21'6711.7
2018-Jan-04 22:14S 39°05' E 145°54'  
2017-Dec-31 13:24S 38°24' E 148°53'411.2
2017-Dec-31 13:00S 38°22' E 148°58'  
2017-Dec-29 05:00S 35°32' E 151°14'23 7.3
2017-Dec-29 01:52S 35°10' E 151°19'513.6
2017-Dec-29 01:29S 35°05' E 151°21'713.5
2017-Dec-29 01:00S 34°59' E 151°24'  
Track history (hours):
 
Tides and Currents Weather Stations Pressure Air Temp Water Temp Dewpoint Dewpoint Depression Visibility Wind Speed Wind Dir Waves Ship Positions

Eco Wildfire

Last reported at 2018-Jan-07 23:38 UTC. Time now 2018-Jan-22 16:30 UTC.
Position S 27°38' E 153°51'.
Warning: this ship's position is 14 days out of date.

Length 179 m; draft 10.1 m.

Type: Cargo ship. MMSI: 538006482.

Date/timePositionNaut miles runAvg speedWind from/ knotsBaromVisibWave heightAir tempDewpointWater temp
2018-Jan-07 23:38S 27°38' E 153°51'212.9
2018-Jan-07 23:30S 27°39' E 153°50'612.9
2018-Jan-07 23:00S 27°46' E 153°49'612.5
2018-Jan-07 22:30S 27°52' E 153°51'612.5
2018-Jan-07 22:00S 27°58' E 153°54'612.0
2018-Jan-07 21:30S 28°03' E 153°58'611.6
2018-Jan-07 21:00S 28°08' E 153°59'612.1
2018-Jan-07 20:30S 28°15' E 153°59'711.9
2018-Jan-07 19:54S 28°22' E 153°58'712.0
2018-Jan-07 19:21S 28°28' E 153°55'6711.2
2018-Jan-07 13:22S 29°33' E 153°38'910.6
2018-Jan-07 12:30S 29°42' E 153°38'510.8
2018-Jan-07 12:00S 29°48' E 153°37'1111.1
2018-Jan-07 11:01S 29°58' E 153°35'011.2
2018-Jan-07 11:00S 29°59' E 153°35'2012.3
2018-Jan-07 09:23S 30°18' E 153°30'10211.5
2018-Jan-07 00:30S 31°55' E 152°54'711.2
2018-Jan-06 23:50S 32°02' E 152°51'411.2
2018-Jan-06 23:30S 32°05' E 152°49'610.9
2018-Jan-06 23:00S 32°10' E 152°47'510.7
2018-Jan-06 22:30S 32°15' E 152°44'511.0
2018-Jan-06 22:00S 32°20' E 152°42'611.3
2018-Jan-06 21:30S 32°25' E 152°39'611.5
2018-Jan-06 21:00S 32°31' E 152°35'713.3
2018-Jan-06 20:30S 32°35' E 152°30'713.3
2018-Jan-06 20:00S 32°40' E 152°25'713.2
2018-Jan-06 19:30S 32°45' E 152°20'713.1
2018-Jan-06 19:00S 32°50' E 152°15'713.2
2018-Jan-06 18:30S 32°55' E 152°10'612.9
2018-Jan-06 18:00S 33°00' E 152°05'612.8
2018-Jan-06 17:30S 33°05' E 151°60'612.7
2018-Jan-06 17:00S 33°10' E 151°55'612.7
2018-Jan-06 16:30S 33°15' E 151°50'612.7
2018-Jan-06 16:00S 33°20' E 151°46'612.6
2018-Jan-06 15:30S 33°25' E 151°41'612.6
2018-Jan-06 15:00S 33°30' E 151°36'612.7
2018-Jan-06 14:30S 33°35' E 151°32'612.6
2018-Jan-06 14:00S 33°40' E 151°27'612.6
2018-Jan-06 13:30S 33°46' E 151°25'612.5
2018-Jan-06 13:00S 33°52' E 151°23'612.4
2018-Jan-06 12:30S 33°58' E 151°22'612.3
2018-Jan-06 12:00S 34°04' E 151°19'612.4
2018-Jan-06 11:30S 34°10' E 151°17'612.2
2018-Jan-06 11:00S 34°16' E 151°16'612.2
2018-Jan-06 10:30S 34°22' E 151°16'612.3
2018-Jan-06 10:00S 34°28' E 151°14'612.6
2018-Jan-06 09:30S 34°34' E 151°13'1812.0
2018-Jan-06 07:59S 34°52' E 151°08'611.5
2018-Jan-06 07:30S 34°57' E 151°06'4010.2
2018-Jan-06 03:36S 35°37' E 150°60'3 9.9
2018-Jan-06 03:15S 35°40' E 150°60'11810.9
2018-Jan-05 16:25S 37°31' E 150°10'1113.0
2018-Jan-05 15:34S 37°38' E 150°00'113.7
2018-Jan-05 15:30S 37°39' E 149°59'713.5
2018-Jan-05 15:00S 37°44' E 149°53'713.2
2018-Jan-05 14:30S 37°48' E 149°48'713.1
2018-Jan-05 14:00S 37°53' E 149°42'713.1
2018-Jan-05 13:30S 37°58' E 149°36'713.2
2018-Jan-05 13:00S 38°03' E 149°30'712.8
2018-Jan-05 12:29S 38°08' E 149°24'712.5
2018-Jan-05 11:57S 38°12' E 149°18'612.8
2018-Jan-05 11:30S 38°15' E 149°12'713.0
2018-Jan-05 11:00S 38°19' E 149°05'713.0
2018-Jan-05 10:30S 38°23' E 148°58'712.8
2018-Jan-05 09:57S 38°27' E 148°51'612.8
2018-Jan-05 09:30S 38°30' E 148°45'712.9
2018-Jan-05 08:59S 38°34' E 148°38'612.8
2018-Jan-05 08:29S 38°38' E 148°32'713.1
2018-Jan-05 07:58S 38°42' E 148°25'613.2
2018-Jan-05 07:30S 38°46' E 148°19'814.2
2018-Jan-05 06:56S 38°49' E 148°09'613.8
2018-Jan-05 06:30S 38°51' E 148°02'713.8
2018-Jan-05 06:00S 38°53' E 147°53'713.7
2018-Jan-05 05:28S 38°56' E 147°44'613.3
2018-Jan-05 05:00S 38°58' E 147°37'713.2
2018-Jan-05 04:29S 39°00' E 147°29'613.0
2018-Jan-05 03:59S 39°02' E 147°21'6711.7
2018-Jan-04 22:14S 39°05' E 145°54'  
2017-Dec-31 13:24S 38°24' E 148°53'411.2
2017-Dec-31 13:00S 38°22' E 148°58'  
2017-Dec-29 05:00S 35°32' E 151°14'23 7.3
2017-Dec-29 01:52S 35°10' E 151°19'513.6
2017-Dec-29 01:29S 35°05' E 151°21'713.5
2017-Dec-29 01:00S 34°59' E 151°24'  

Dump ship's entire track history